EHRD Airport Information

Runway Information
Runway 06 Length 7218 ft width 148 ft
Elevation -15 ft Threshold 656 ft Heading 56
Runway 24 Length 7218 ft Width 148 ft
Elevation -15 ft Threshold 656 ft Heading 235
Airport Frequencies
Type A/D Name SCHIPHOL Frequency 121.2 MHZ
Type APP Name APP Frequency 127.025 MHZ
Type ATIS Name ATIS Frequency 110.4 MHZ
Type GND Name GND Frequency 122.175 MHZ
Type TWR Name TWR Frequency 118.2 MHZ
Airport Navaids
Type NDB Name Rotterdam Frequency 351 KHZ
Type VOR-DME Name Rotterdam Frequency 110400 KHZ
Airport Weather Information & NOTAM
ADDS - METARS form results

(0442 UTC 11 August 2022)
Data provider http://aviationweather.gov/metar/data/
 
METAR text: EHRD 110425Z AUTO 02003KT 9999 NCD 16/14 Q1022 NOSIG
Conditions at: EHRD (ROTTERDAM AIRPOR, NL) observed 0425 UTC 11 August 2022
Temperature: 16.0°C (61°F)
Dewpoint: 14.0°C (57°F) [RH = 88%]
Pressure (altimeter): 30.18 inches Hg (1022.0 mb)
Winds: from the NNE (20 degrees) at 3 MPH (3 knots; 1.5 m/s)
Visibility: 6 or more miles (10+ km)
Ceiling: at least 12,000 feet AGL
Clouds: sky clear below 12,000 feet AGL
Weather: no significant weather observed at this time

METAR text: EHRD 110355Z AUTO 05002KT 9999 FEW015CB 15/14 Q1022 NOSIG
Conditions at: EHRD (ROTTERDAM AIRPOR, NL) observed 0355 UTC 11 August 2022
Temperature: 15.0°C (59°F)
Dewpoint: 14.0°C (57°F) [RH = 94%]
Pressure (altimeter): 30.18 inches Hg (1022.0 mb)
Winds: from the NE (50 degrees) at 2 MPH (2 knots; 1.0 m/s)
Visibility: 6 or more miles (10+ km)
Ceiling: at least 12,000 feet AGL
Clouds: few clouds at 1500 feet AGL
Weather: no significant weather observed at this time

Forecast for: EHRD (ROTTERDAM AIRPOR, NL)
Text: TAF EHRD 102319Z 1100/1206 06008KT CAVOK
Forecast period: 0000 UTC 11 August 2022 to 0600 UTC 12 August 2022
Forecast type: FROM: standard forecast or significant change
Winds: from the ENE (60 degrees) at 9 MPH (8 knots; 4.1 m/s)
Visibility: 6 or more miles (10+ km)
Ceiling: unknown
Clouds: missing
Weather: NSW  (no significant weather)